createdAt,value
2023-02-08T00:00:50.932Z,24.27
2023-02-08T00:03:18.374Z,23.73
2023-02-08T00:05:45.817Z,22.92
2023-02-08T00:08:13.332Z,24.20
2023-02-08T00:10:41.346Z,22.92
2023-02-08T00:13:09.115Z,22.15
2023-02-08T00:15:41.796Z,21.67
2023-02-08T00:18:09.448Z,21.23
2023-02-08T00:20:40.481Z,22.08
2023-02-08T00:23:08.217Z,22.13
2023-02-08T00:25:36.249Z,21.92
2023-02-08T00:28:04.875Z,20.95
2023-02-08T00:30:32.977Z,20.70
2023-02-08T00:35:29.179Z,19.27
2023-02-08T00:37:57.194Z,19.65
2023-02-08T00:42:52.096Z,17.65
2023-02-08T00:45:19.750Z,17.80
2023-02-08T00:47:47.178Z,17.50
2023-02-08T00:50:15.391Z,15.70
2023-02-08T00:52:42.806Z,15.45
2023-02-08T00:55:11.617Z,14.98
2023-02-08T00:57:39.102Z,15.25
2023-02-08T01:00:07.469Z,13.35
2023-02-08T01:02:38.848Z,14.95
2023-02-08T01:05:06.860Z,14.65
2023-02-08T01:07:38.841Z,14.52
2023-02-08T01:10:08.066Z,14.77
2023-02-08T01:12:35.680Z,15.35
2023-02-08T01:15:03.747Z,13.95
2023-02-08T01:19:58.885Z,13.52
2023-02-08T01:22:28.374Z,13.63
2023-02-08T01:24:55.853Z,12.68
2023-02-08T01:27:23.295Z,13.02
2023-02-08T01:29:50.761Z,12.25
2023-02-08T01:32:18.403Z,13.45
2023-02-08T01:34:46.361Z,13.70
2023-02-08T01:39:41.136Z,12.15
2023-02-08T01:42:14.859Z,10.85
2023-02-08T01:45:15.723Z,11.43
2023-02-08T01:47:45.284Z,10.95
2023-02-08T01:50:15.285Z,12.05
2023-02-08T01:52:43.980Z,12.52
2023-02-08T01:55:20.348Z,12.43
2023-02-08T01:57:52.542Z,12.07
2023-02-08T02:00:22.380Z,11.75
2023-02-08T02:02:53.522Z,12.05
2023-02-08T02:05:29.500Z,10.65
2023-02-08T02:08:00.249Z,10.15
2023-02-08T02:10:29.353Z,11.20
2023-02-08T02:13:02.222Z,11.55
2023-02-08T02:15:29.737Z,11.80
2023-02-08T02:17:57.428Z,11.88
2023-02-08T02:20:39.538Z,10.77
2023-02-08T02:23:22.338Z,11.70
2023-02-08T02:26:23.420Z,11.35
2023-02-08T02:29:18.858Z,11.35
2023-02-08T02:31:55.545Z,10.52
2023-02-08T02:35:02.678Z,11.20
2023-02-08T02:38:03.996Z,11.07
2023-02-08T02:41:06.080Z,10.65
2023-02-08T02:43:46.312Z,11.00
2023-02-08T02:46:31.941Z,11.75
2023-02-08T02:49:01.388Z,11.65
2023-02-08T02:51:46.226Z,10.93
2023-02-08T02:54:20.700Z,10.48
2023-02-08T02:56:52.156Z,11.27
2023-02-08T02:59:20.316Z,10.38
2023-02-08T03:01:48.420Z,11.35
2023-02-08T03:04:32.241Z,11.05
2023-02-08T03:07:28.485Z,10.90
2023-02-08T03:10:20.610Z,11.20
2023-02-08T03:13:01.241Z,10.60
2023-02-08T03:16:01.338Z,10.45
2023-02-08T03:18:43.796Z,10.77
2023-02-08T03:21:17.397Z,10.13
2023-02-08T03:24:06.510Z,10.52
2023-02-08T03:26:50.307Z,9.77
2023-02-08T03:29:35.459Z,10.15
2023-02-08T03:32:10.235Z,10.20
2023-02-08T03:35:06.828Z,10.07
2023-02-08T03:37:51.479Z,9.13
2023-02-08T03:40:32.770Z,9.90
2023-02-08T03:43:07.338Z,10.30
2023-02-08T03:45:43.649Z,9.57
2023-02-08T03:48:13.585Z,9.68
2023-02-08T03:50:43.789Z,9.77
2023-02-08T03:53:12.303Z,9.30
2023-02-08T03:55:41.916Z,9.02
2023-02-08T03:58:32.559Z,9.00
2023-02-08T04:01:25.407Z,9.70
2023-02-08T04:03:54.615Z,8.45
2023-02-08T04:06:22.832Z,8.65
2023-02-08T04:08:50.624Z,8.93
2023-02-08T04:11:18.076Z,9.05
2023-02-08T04:13:45.604Z,7.45
2023-02-08T04:16:13.473Z,9.13
2023-02-08T04:21:08.501Z,7.93
2023-02-08T04:23:36.442Z,8.93
2023-02-08T04:28:31.665Z,8.23
2023-02-08T04:30:59.375Z,7.80
2023-02-08T04:33:26.963Z,8.15
2023-02-08T04:35:54.461Z,8.55
2023-02-08T04:38:21.920Z,8.60
2023-02-08T04:40:49.454Z,8.68
2023-02-08T04:43:16.916Z,9.10
2023-02-08T04:45:44.443Z,9.35
2023-02-08T04:48:12.145Z,8.48
2023-02-08T04:50:40.876Z,8.88
2023-02-08T04:53:08.549Z,9.23
2023-02-08T04:55:36.623Z,8.55
2023-02-08T04:58:04.482Z,8.93
2023-02-08T05:02:59.635Z,8.50
2023-02-08T05:07:55.501Z,8.48
2023-02-08T05:10:22.975Z,9.50
2023-02-08T05:12:50.806Z,9.32
2023-02-08T05:15:18.364Z,9.55
2023-02-08T05:17:45.887Z,10.25
2023-02-08T05:20:13.903Z,10.32
2023-02-08T05:25:09.294Z,8.95
2023-02-08T05:27:37.556Z,9.20
2023-02-08T05:30:05.505Z,10.48
2023-02-08T05:35:01.493Z,10.00
2023-02-08T05:37:29.009Z,9.65
2023-02-08T05:39:56.551Z,9.65
2023-02-08T05:42:24.060Z,10.40
2023-02-08T05:44:52.466Z,10.65
2023-02-08T05:47:19.977Z,10.60
2023-02-08T05:49:47.480Z,11.13
2023-02-08T05:52:15.123Z,10.85
2023-02-08T05:54:42.650Z,11.57
2023-02-08T05:57:10.144Z,11.93
2023-02-08T05:59:37.705Z,11.30
2023-02-08T06:02:05.150Z,11.38
2023-02-08T06:04:32.852Z,10.90
2023-02-08T06:07:00.291Z,11.75
2023-02-08T06:09:27.760Z,12.40
2023-02-08T06:11:55.213Z,11.73
2023-02-08T06:14:22.673Z,12.18
2023-02-08T06:16:50.218Z,12.30
2023-02-08T06:19:18.104Z,12.50
2023-02-08T06:24:13.712Z,11.15
2023-02-08T06:26:41.293Z,12.55
2023-02-08T06:29:09.086Z,13.25
2023-02-08T06:34:04.072Z,11.35
2023-02-08T06:36:31.570Z,13.30
2023-02-08T06:38:59.026Z,13.52
2023-02-08T06:41:27.191Z,13.80
2023-02-08T06:43:54.681Z,14.15
2023-02-08T06:46:22.185Z,14.57
2023-02-08T06:48:49.664Z,14.35
2023-02-08T06:51:17.094Z,14.27
2023-02-08T06:53:44.544Z,14.13
2023-02-08T06:56:12.025Z,13.88
2023-02-08T06:58:39.664Z,14.25
2023-02-08T07:01:07.266Z,16.20
2023-02-08T07:03:35.079Z,15.82
2023-02-08T07:06:05.466Z,14.82
2023-02-08T07:08:34.440Z,15.15
2023-02-08T07:11:08.919Z,15.65
2023-02-08T07:13:37.693Z,15.23
2023-02-08T07:16:10.030Z,16.25
2023-02-08T07:18:37.762Z,15.98
2023-02-08T07:21:08.721Z,15.68
2023-02-08T07:23:36.783Z,15.82
2023-02-08T07:28:35.299Z,15.48
2023-02-08T07:31:10.173Z,15.50
2023-02-08T07:33:38.165Z,15.27
2023-02-08T07:37:31.907Z,16.67
2023-02-08T07:39:35.239Z,16.98
2023-02-08T07:44:39.580Z,16.70
2023-02-08T07:47:17.693Z,18.17
2023-02-08T07:49:47.885Z,17.08
2023-02-08T07:52:21.056Z,19.58
2023-02-08T07:55:40.284Z,19.42
2023-02-08T08:03:52.064Z,17.27
2023-02-08T08:07:00.267Z,19.00
2023-02-08T08:17:28.981Z,19.42
2023-02-08T08:19:57.626Z,20.13
2023-02-08T08:22:30.381Z,24.70
2023-02-08T08:25:00.661Z,22.92
2023-02-08T08:27:40.321Z,23.75
2023-02-08T08:30:19.087Z,22.90
2023-02-08T08:32:47.073Z,24.05
2023-02-08T08:35:17.078Z,22.48
2023-02-08T08:37:52.322Z,23.55
2023-02-08T08:40:20.181Z,24.08
2023-02-08T08:42:47.815Z,22.45
2023-02-08T08:45:16.172Z,23.58
2023-02-08T08:47:46.947Z,23.88
2023-02-08T08:50:14.663Z,23.88
2023-02-08T08:52:45.403Z,25.67
2023-02-08T08:55:13.149Z,26.17
2023-02-08T08:57:40.873Z,24.02
2023-02-08T09:00:09.133Z,25.50
2023-02-08T09:02:36.842Z,25.83
2023-02-08T09:05:06.097Z,26.77
2023-02-08T09:07:33.770Z,27.45
2023-02-08T09:10:01.253Z,27.85
2023-02-08T09:12:29.102Z,29.38
2023-02-08T09:14:56.571Z,28.65
2023-02-08T09:17:24.065Z,27.75
2023-02-08T09:19:51.606Z,28.35
2023-02-08T09:22:20.964Z,28.67
2023-02-08T09:24:48.610Z,30.17
2023-02-08T09:27:16.066Z,29.95
2023-02-08T09:29:43.540Z,29.60
2023-02-08T09:32:10.926Z,33.00
2023-02-08T09:34:38.352Z,32.13
2023-02-08T09:37:07.037Z,34.33
2023-02-08T09:39:34.989Z,36.58
2023-02-08T09:44:56.425Z,34.60
2023-02-08T09:47:36.357Z,35.50
2023-02-08T09:50:23.937Z,35.80
2023-02-08T09:53:19.605Z,41.22
2023-02-08T09:56:01.781Z,41.92
2023-02-08T09:58:41.680Z,42.35
2023-02-08T10:01:31.668Z,45.65
2023-02-08T10:04:22.408Z,45.47
2023-02-08T10:06:50.308Z,45.58
2023-02-08T10:09:25.009Z,51.47
2023-02-08T10:12:13.675Z,52.45
2023-02-08T10:15:08.631Z,55.13
2023-02-08T10:18:06.348Z,55.05
2023-02-08T10:21:07.273Z,59.72
2023-02-08T10:24:09.813Z,56.30
2023-02-08T10:27:11.533Z,52.33
2023-02-08T10:30:11.698Z,51.65
2023-02-08T10:33:10.826Z,51.25
2023-02-08T10:35:59.340Z,48.17
2023-02-08T10:38:45.746Z,50.28
2023-02-08T10:41:21.745Z,51.17
2023-02-08T10:44:10.051Z,49.45
2023-02-08T10:47:09.878Z,48.35
2023-02-08T10:49:50.312Z,50.60
2023-02-08T10:52:29.769Z,51.60
2023-02-08T10:55:00.797Z,51.08
2023-02-08T10:57:35.847Z,53.88
2023-02-08T11:00:11.425Z,52.17
2023-02-08T11:02:42.707Z,49.95
2023-02-08T11:05:31.965Z,47.97
2023-02-08T11:08:16.055Z,38.65
2023-02-08T11:11:05.752Z,35.78
2023-02-08T11:13:42.829Z,32.92
2023-02-08T11:16:13.574Z,31.65
2023-02-08T11:18:52.512Z,33.47
2023-02-08T11:21:34.665Z,30.73
2023-02-08T11:24:30.290Z,28.45
2023-02-08T11:26:57.822Z,30.15
2023-02-08T11:29:27.948Z,32.08
2023-02-08T11:31:55.826Z,29.55
2023-02-08T11:34:33.493Z,30.42
2023-02-08T11:37:13.788Z,26.83
2023-02-08T11:40:00.805Z,27.83
2023-02-08T11:42:35.032Z,25.85
2023-02-08T11:45:03.695Z,21.42
2023-02-08T11:47:33.758Z,24.70
2023-02-08T11:50:04.746Z,24.15
2023-02-08T11:52:39.200Z,23.70
2023-02-08T11:55:18.596Z,23.85
2023-02-08T11:58:11.741Z,22.65
2023-02-08T12:00:40.923Z,21.42
2023-02-08T12:03:15.623Z,20.48
2023-02-08T12:06:10.883Z,18.73
2023-02-08T12:09:02.987Z,18.95
2023-02-08T12:11:43.897Z,20.17
2023-02-08T12:14:47.664Z,20.92
2023-02-08T12:17:34.074Z,19.58
2023-02-08T12:20:39.438Z,20.65
2023-02-08T12:26:53.005Z,18.15
2023-02-08T12:29:48.852Z,17.85
2023-02-08T12:32:33.578Z,17.08
2023-02-08T12:35:29.481Z,18.25
2023-02-08T12:38:52.489Z,18.25
2023-02-08T12:41:41.374Z,17.40
2023-02-08T12:44:16.627Z,17.52
2023-02-08T12:47:02.429Z,20.23
2023-02-08T12:50:09.289Z,19.83
2023-02-08T12:52:52.807Z,20.20
2023-02-08T12:55:34.176Z,18.63
2023-02-08T12:58:30.356Z,19.65
2023-02-08T13:01:33.341Z,18.23
2023-02-08T13:04:32.269Z,18.98
2023-02-08T13:07:29.614Z,18.38
2023-02-08T13:10:08.662Z,17.15
2023-02-08T13:12:48.056Z,19.92
2023-02-08T13:15:30.700Z,20.45
2023-02-08T13:18:02.864Z,17.42
2023-02-08T13:20:58.770Z,18.35
2023-02-08T13:23:51.704Z,17.88
2023-02-08T13:26:27.974Z,15.50
2023-02-08T13:28:59.429Z,15.80
2023-02-08T13:31:54.415Z,15.32
2023-02-08T13:34:40.696Z,15.63
2023-02-08T13:37:25.215Z,18.42
2023-02-08T13:40:08.388Z,19.40
2023-02-08T13:42:43.389Z,20.15
2023-02-08T13:45:28.808Z,20.90
2023-02-08T13:48:01.756Z,23.15
2023-02-08T13:50:35.019Z,21.98
2023-02-08T13:53:03.919Z,21.23
2023-02-08T13:55:35.889Z,21.67
2023-02-08T13:58:15.639Z,22.90
2023-02-08T14:00:56.325Z,19.92
2023-02-08T14:03:29.284Z,19.52
2023-02-08T14:06:01.006Z,19.98
2023-02-08T14:08:31.724Z,20.30
2023-02-08T14:11:23.492Z,21.20
2023-02-08T14:13:58.855Z,20.35
2023-02-08T14:16:40.573Z,21.63
2023-02-08T14:19:18.114Z,20.25
2023-02-08T14:21:50.547Z,20.33
2023-02-08T14:24:28.650Z,20.58
2023-02-08T14:27:19.839Z,20.35
2023-02-08T14:30:02.831Z,19.90
2023-02-08T14:32:32.750Z,19.83
2023-02-08T14:35:18.230Z,19.65
2023-02-08T14:37:45.710Z,20.42
2023-02-08T14:40:24.691Z,22.05
2023-02-08T14:42:59.959Z,21.40
2023-02-08T14:45:32.272Z,19.25
2023-02-08T14:48:18.251Z,16.52
2023-02-08T14:51:09.561Z,17.80
2023-02-08T14:53:54.194Z,16.63
2023-02-08T14:56:44.334Z,17.80
2023-02-08T14:59:17.833Z,16.75
2023-02-08T15:01:58.956Z,17.02
2023-02-08T15:04:27.362Z,16.67
2023-02-08T15:07:09.066Z,15.35
2023-02-08T15:09:40.047Z,14.43
2023-02-08T15:12:24.817Z,14.70
2023-02-08T15:14:58.637Z,14.20
2023-02-08T15:17:41.092Z,13.50
2023-02-08T15:20:20.223Z,12.73
2023-02-08T15:22:47.985Z,12.50
2023-02-08T15:25:32.532Z,13.07
2023-02-08T15:28:22.946Z,12.82
2023-02-08T15:30:59.363Z,12.00
2023-02-08T15:33:26.914Z,12.68
2023-02-08T15:36:00.811Z,13.10
2023-02-08T15:38:29.814Z,14.02
2023-02-08T15:41:26.664Z,14.73
2023-02-08T15:44:15.403Z,14.70
2023-02-08T15:46:43.856Z,14.25
2023-02-08T15:49:26.681Z,14.18
2023-02-08T15:51:56.963Z,12.98
2023-02-08T15:54:25.654Z,15.10
2023-02-08T15:57:01.619Z,14.82
2023-02-08T15:59:33.802Z,16.55
2023-02-08T16:02:19.600Z,15.75
2023-02-08T16:04:47.475Z,16.10
2023-02-08T16:07:37.469Z,15.45
2023-02-08T16:10:07.821Z,15.48
2023-02-08T16:12:36.240Z,16.58
2023-02-08T16:15:04.248Z,16.05
2023-02-08T16:20:30.737Z,16.38
2023-02-08T16:23:22.104Z,16.65
2023-02-08T16:25:50.280Z,16.67
2023-02-08T16:31:01.182Z,16.73
2023-02-08T16:33:30.517Z,92.57
2023-02-08T16:36:02.595Z,33.45
2023-02-08T16:38:33.688Z,28.13
2023-02-08T16:41:12.614Z,25.98
2023-02-08T16:43:44.062Z,20.60
2023-02-08T16:46:14.907Z,19.50
2023-02-08T16:48:54.710Z,19.33
2023-02-08T16:51:28.454Z,20.17
2023-02-08T16:54:02.475Z,19.77
2023-02-08T16:56:30.424Z,20.02
2023-02-08T16:58:58.060Z,23.27
2023-02-08T17:01:26.573Z,23.92
2023-02-08T17:03:57.543Z,26.88
2023-02-08T17:06:33.144Z,27.55
2023-02-08T17:09:02.691Z,27.15
2023-02-08T17:11:31.331Z,24.83
2023-02-08T17:14:07.143Z,25.77
2023-02-08T17:16:36.411Z,27.42
2023-02-08T17:19:07.026Z,29.20
2023-02-08T17:21:34.833Z,32.47
2023-02-08T17:24:05.135Z,33.25
2023-02-08T17:26:39.524Z,32.95
2023-02-08T17:29:08.235Z,32.88
2023-02-08T17:31:36.013Z,31.77
2023-02-08T17:34:06.488Z,31.48
2023-02-08T17:36:36.524Z,28.88
2023-02-08T17:39:09.617Z,28.20
2023-02-08T17:41:40.870Z,29.90
2023-02-08T17:44:08.512Z,28.85
2023-02-08T17:46:38.921Z,27.48
2023-02-08T17:49:06.725Z,26.95
2023-02-08T17:51:34.373Z,28.45
2023-02-08T17:54:05.375Z,32.53
2023-02-08T17:56:35.408Z,36.50
2023-02-08T17:59:05.228Z,35.05
2023-02-08T18:01:33.134Z,35.38
2023-02-08T18:04:01.549Z,33.42
2023-02-08T18:06:29.648Z,31.85
2023-02-08T18:08:57.412Z,32.22
2023-02-08T18:11:24.951Z,33.83
2023-02-08T18:13:53.758Z,33.78
2023-02-08T18:16:25.046Z,33.60
2023-02-08T18:18:56.745Z,34.58
2023-02-08T18:21:30.063Z,33.75
2023-02-08T18:24:01.785Z,33.17
2023-02-08T18:26:30.763Z,33.85
2023-02-08T18:29:02.032Z,35.88
2023-02-08T18:31:30.653Z,37.55
2023-02-08T18:33:58.215Z,38.67
2023-02-08T18:36:26.014Z,40.95
2023-02-08T18:38:55.638Z,47.28
2023-02-08T18:41:25.946Z,42.63
2023-02-08T18:43:55.365Z,42.35
2023-02-08T18:46:27.481Z,41.55
2023-02-08T18:48:55.663Z,43.70
2023-02-08T18:51:26.983Z,43.03
2023-02-08T18:53:55.086Z,43.78
2023-02-08T18:56:24.222Z,46.58
2023-02-08T18:58:53.676Z,48.38
2023-02-08T19:01:23.246Z,48.58
2023-02-08T19:03:51.922Z,45.83
2023-02-08T19:06:24.291Z,42.22
2023-02-08T19:08:53.547Z,40.17
2023-02-08T19:11:26.775Z,40.63
2023-02-08T19:13:56.638Z,39.85
2023-02-08T19:16:24.759Z,40.42
2023-02-08T19:18:55.584Z,38.95
2023-02-08T19:21:23.336Z,36.58
2023-02-08T19:23:53.696Z,39.28
2023-02-08T19:26:26.493Z,36.85
2023-02-08T19:28:57.726Z,36.42
2023-02-08T19:31:27.466Z,35.35
2023-02-08T19:34:01.565Z,34.90
2023-02-08T19:36:38.529Z,35.35
2023-02-08T19:39:07.473Z,32.97
2023-02-08T19:41:38.094Z,34.85
2023-02-08T19:44:07.558Z,32.35
2023-02-08T19:46:38.657Z,29.58
2023-02-08T19:49:07.336Z,30.20
2023-02-08T19:51:37.010Z,31.33
2023-02-08T19:54:08.465Z,29.35
2023-02-08T19:56:36.666Z,28.00
2023-02-08T19:59:05.710Z,28.40
2023-02-08T20:01:35.427Z,29.63
2023-02-08T20:04:03.266Z,29.55
2023-02-08T20:06:33.936Z,28.50
2023-02-08T20:09:01.755Z,29.17
2023-02-08T20:11:31.782Z,29.85
2023-02-08T20:14:00.563Z,27.85
2023-02-08T20:16:31.644Z,29.42
2023-02-08T20:19:02.121Z,28.40
2023-02-08T20:21:29.656Z,28.05
2023-02-08T20:23:57.277Z,30.38
2023-02-08T20:26:28.558Z,29.23
2023-02-08T20:28:58.283Z,29.67
2023-02-08T20:31:33.869Z,28.35
2023-02-08T20:34:05.925Z,27.05
2023-02-08T20:36:40.762Z,28.67
2023-02-08T20:39:15.263Z,28.75
2023-02-08T20:41:47.619Z,29.85
2023-02-08T20:44:17.999Z,30.55
2023-02-08T20:46:48.226Z,31.05
2023-02-08T20:49:21.367Z,30.05
2023-02-08T20:51:53.340Z,29.80
2023-02-08T20:54:24.517Z,29.52
2023-02-08T20:56:53.478Z,29.60
2023-02-08T20:59:21.683Z,28.08
2023-02-08T21:01:51.675Z,26.85
2023-02-08T21:04:23.209Z,28.70
2023-02-08T21:06:52.244Z,28.15
2023-02-08T21:09:20.939Z,28.60
2023-02-08T21:11:49.648Z,29.77
2023-02-08T21:14:20.670Z,28.85
2023-02-08T21:16:51.064Z,28.25
2023-02-08T21:19:20.709Z,27.25
2023-02-08T21:21:57.598Z,26.40
2023-02-08T21:24:25.581Z,27.52
2023-02-08T21:26:54.433Z,26.38
2023-02-08T21:29:24.168Z,26.70
2023-02-08T21:31:54.154Z,26.08
2023-02-08T21:34:22.337Z,27.55
2023-02-08T21:36:50.104Z,27.05
2023-02-08T21:39:17.800Z,27.80
2023-02-08T21:41:45.373Z,27.77
2023-02-08T21:44:12.890Z,28.50
2023-02-08T21:46:40.597Z,29.52
2023-02-08T21:49:27.554Z,30.60
2023-02-08T21:52:13.665Z,27.70
2023-02-08T21:54:41.297Z,27.33
2023-02-08T21:57:16.052Z,30.85
2023-02-08T21:59:43.579Z,30.80
2023-02-08T22:02:16.191Z,31.40
2023-02-08T22:05:02.168Z,31.55
2023-02-08T22:07:29.969Z,30.80
2023-02-08T22:09:57.604Z,33.75
2023-02-08T22:12:25.190Z,33.38
2023-02-08T22:14:52.665Z,33.20
2023-02-08T22:17:20.354Z,33.78
2023-02-08T22:19:48.345Z,32.97
2023-02-08T22:22:15.808Z,33.40
2023-02-08T22:24:43.351Z,34.28
2023-02-08T22:27:12.035Z,34.67
2023-02-08T22:29:39.526Z,35.00
2023-02-08T22:32:09.767Z,34.08
2023-02-08T22:34:38.674Z,34.78
2023-02-08T22:37:06.121Z,32.88
2023-02-08T22:39:34.155Z,33.75
2023-02-08T22:44:30.802Z,32.20
2023-02-08T22:47:01.241Z,34.20
2023-02-08T22:49:29.156Z,36.47
2023-02-08T22:54:23.876Z,33.90
2023-02-08T22:56:51.413Z,37.10
2023-02-08T22:59:18.970Z,39.65
2023-02-08T23:01:46.471Z,38.60
2023-02-08T23:04:13.979Z,37.50
2023-02-08T23:06:41.435Z,36.05
2023-02-08T23:09:08.957Z,36.22
2023-02-08T23:11:36.379Z,36.17
2023-02-08T23:14:04.084Z,38.92
2023-02-08T23:16:32.583Z,41.03
2023-02-08T23:19:00.436Z,38.30
2023-02-08T23:21:28.176Z,39.53
2023-02-08T23:23:55.718Z,39.05
2023-02-08T23:26:23.757Z,36.50
2023-02-08T23:28:53.579Z,38.28
2023-02-08T23:31:21.666Z,37.30
2023-02-08T23:33:49.616Z,36.40
2023-02-08T23:36:20.742Z,36.75
2023-02-08T23:38:49.542Z,36.55
2023-02-08T23:41:20.039Z,37.25
2023-02-08T23:43:48.877Z,38.42
2023-02-08T23:46:20.691Z,37.55
2023-02-08T23:48:48.737Z,37.88
2023-02-08T23:51:17.957Z,38.63
2023-02-08T23:53:45.790Z,39.17
2023-02-08T23:56:20.047Z,38.40
2023-02-08T23:58:50.289Z,39.05
